createdAt,value
2023-01-30T00:03:49.209Z,1.00
2023-01-30T00:08:51.925Z,1.00
2023-01-30T00:13:54.495Z,1.00
2023-01-30T00:18:56.810Z,1.00
2023-01-30T00:24:00.957Z,1.00
2023-01-30T00:29:03.427Z,1.00
2023-01-30T00:34:06.348Z,1.00
2023-01-30T00:39:09.015Z,1.00
2023-01-30T00:44:29.922Z,1.00
2023-01-30T00:49:32.775Z,1.00
2023-01-30T00:54:35.535Z,1.00
2023-01-30T00:59:37.886Z,1.00
2023-01-30T01:04:43.569Z,1.00
2023-01-30T01:09:46.793Z,1.00
2023-01-30T01:14:49.136Z,1.00
2023-01-30T01:19:51.671Z,1.00
2023-01-30T01:24:54.030Z,1.00
2023-01-30T01:29:56.411Z,1.00
2023-01-30T01:34:58.793Z,1.00
2023-01-30T01:40:30.184Z,1.00
2023-01-30T01:45:32.622Z,1.00
2023-01-30T01:50:44.128Z,1.00
2023-01-30T01:55:49.987Z,1.00
2023-01-30T02:00:53.540Z,1.00
2023-01-30T02:05:59.845Z,1.00
2023-01-30T02:11:33.770Z,1.00
2023-01-30T02:16:37.255Z,1.00
2023-01-30T02:21:51.608Z,1.00
2023-01-30T02:27:18.999Z,1.00
2023-01-30T02:32:45.270Z,1.00
2023-01-30T02:37:54.170Z,1.00
2023-01-30T02:43:15.933Z,1.00
2023-01-30T02:48:35.843Z,1.00
2023-01-30T02:53:38.827Z,1.00
2023-01-30T02:59:07.026Z,1.00
2023-01-30T03:04:33.568Z,1.00
2023-01-30T03:09:45.467Z,1.00
2023-01-30T03:15:01.202Z,1.00
2023-01-30T03:20:04.281Z,1.00
2023-01-30T03:25:09.099Z,1.00
2023-01-30T03:30:12.544Z,1.00
2023-01-30T03:35:17.965Z,1.00
2023-01-30T03:40:20.809Z,1.00
2023-01-30T03:45:23.389Z,99.90
2023-01-30T03:50:25.868Z,99.90
2023-01-30T03:55:28.487Z,1.00
2023-01-30T04:00:31.087Z,1.00
2023-01-30T04:05:33.526Z,99.90
2023-01-30T04:10:40.231Z,99.90
2023-01-30T04:15:42.736Z,1.00
2023-01-30T04:21:11.742Z,99.90
2023-01-30T04:26:15.585Z,99.90
2023-01-30T04:31:18.146Z,1.00
2023-01-30T04:36:46.613Z,1.00
2023-01-30T04:41:49.100Z,97.60
2023-01-30T04:46:51.531Z,1.00
2023-01-30T04:51:56.123Z,1.00
2023-01-30T04:56:58.567Z,99.90
2023-01-30T05:02:00.987Z,99.90
2023-01-30T05:07:03.452Z,1.00
2023-01-30T05:12:05.976Z,99.90
2023-01-30T05:17:08.614Z,1.00
2023-01-30T05:22:11.152Z,1.00
2023-01-30T05:27:13.516Z,1.00
2023-01-30T05:32:17.341Z,1.00
2023-01-30T05:37:19.641Z,1.00
2023-01-30T05:42:21.987Z,1.00
2023-01-30T05:47:24.346Z,1.00
2023-01-30T05:52:26.939Z,1.00
2023-01-30T05:57:29.282Z,1.00
2023-01-30T06:02:31.795Z,1.00
2023-01-30T06:07:34.203Z,6.10
2023-01-30T06:12:36.551Z,13.70
2023-01-30T06:17:43.258Z,19.80
2023-01-30T06:22:45.643Z,24.70
2023-01-30T06:27:47.993Z,27.50
2023-01-30T06:32:51.687Z,28.90
2023-01-30T06:37:54.183Z,29.60
2023-01-30T06:42:56.545Z,29.50
2023-01-30T06:47:58.967Z,27.80
2023-01-30T06:53:06.694Z,26.20
2023-01-30T06:58:15.010Z,23.70
2023-01-30T07:03:18.618Z,21.10
2023-01-30T07:08:23.279Z,17.00
2023-01-30T07:13:26.493Z,14.80
2023-01-30T07:18:28.894Z,11.40
2023-01-30T07:23:31.276Z,13.80
2023-01-30T07:28:33.660Z,19.10
2023-01-30T07:33:36.197Z,28.20
2023-01-30T07:38:38.629Z,42.50
2023-01-30T07:43:41.131Z,60.20
2023-01-30T07:48:45.301Z,73.60
2023-01-30T07:53:51.051Z,84.40
2023-01-30T07:58:55.281Z,93.10
2023-01-30T08:03:57.742Z,96.80
2023-01-30T08:09:00.159Z,99.00
2023-01-30T08:14:02.758Z,99.90
2023-01-30T08:19:06.443Z,99.90
2023-01-30T08:24:08.951Z,99.90
2023-01-30T08:29:13.590Z,99.90
2023-01-30T08:34:16.038Z,99.90
2023-01-30T08:39:18.697Z,99.90
2023-01-30T08:44:21.140Z,99.90
2023-01-30T08:49:23.606Z,99.30
2023-01-30T08:54:25.977Z,98.40
2023-01-30T08:59:28.318Z,96.90
2023-01-30T09:04:31.137Z,95.50
2023-01-30T09:09:33.772Z,94.60
2023-01-30T09:14:36.166Z,93.70
2023-01-30T09:19:38.761Z,91.30
2023-01-30T09:24:41.196Z,88.20
2023-01-30T09:29:45.258Z,82.50
2023-01-30T09:34:47.899Z,76.90
2023-01-30T09:39:50.431Z,75.70
2023-01-30T09:45:00.383Z,76.40
2023-01-30T09:50:23.371Z,77.60
2023-01-30T09:55:29.532Z,76.30
2023-01-30T10:00:42.307Z,74.90
2023-01-30T10:05:59.278Z,74.50
2023-01-30T10:11:43.088Z,77.30
2023-01-30T10:17:32.639Z,80.30
2023-01-30T10:22:48.964Z,83.50
2023-01-30T10:28:10.328Z,85.90
2023-01-30T10:33:25.117Z,88.20
2023-01-30T10:38:35.530Z,90.10
2023-01-30T10:43:45.427Z,90.80
2023-01-30T10:49:13.583Z,90.90
2023-01-30T10:54:31.098Z,90.30
2023-01-30T10:59:54.693Z,88.80
2023-01-30T11:04:59.593Z,87.70
2023-01-30T11:10:02.000Z,87.30
2023-01-30T11:15:04.661Z,87.40
2023-01-30T11:20:18.479Z,88.00
2023-01-30T11:25:23.024Z,87.70
2023-01-30T11:30:34.169Z,88.20
2023-01-30T11:35:44.254Z,85.60
2023-01-30T11:40:46.684Z,82.80
2023-01-30T11:45:50.804Z,79.70
2023-01-30T11:51:04.554Z,78.40
2023-01-30T11:56:14.235Z,77.60
2023-01-30T12:01:17.461Z,75.60
2023-01-30T12:06:41.171Z,74.70
2023-01-30T12:11:45.262Z,73.50
2023-01-30T12:16:52.903Z,71.70
2023-01-30T12:22:26.519Z,70.80
2023-01-30T12:27:35.736Z,70.90
2023-01-30T12:32:38.204Z,70.50
2023-01-30T12:37:50.808Z,68.30
2023-01-30T12:43:07.779Z,64.80
2023-01-30T12:48:43.882Z,51.70
2023-01-30T12:54:22.462Z,43.30
2023-01-30T12:59:30.397Z,39.40
2023-01-30T13:05:04.641Z,38.80
2023-01-30T13:10:40.766Z,38.70
2023-01-30T13:16:20.784Z,39.50
2023-01-30T13:21:36.915Z,40.90
2023-01-30T13:26:41.638Z,40.50
2023-01-30T13:31:57.314Z,43.20
2023-01-30T13:37:07.533Z,44.50
2023-01-30T13:42:24.952Z,38.40
2023-01-30T13:47:55.737Z,39.40
2023-01-30T13:53:25.580Z,41.70
2023-01-30T13:58:46.879Z,49.00
2023-01-30T14:03:49.983Z,54.90
2023-01-30T14:08:59.150Z,54.30
2023-01-30T14:14:22.963Z,52.60
2023-01-30T14:19:53.410Z,52.10
2023-01-30T14:25:29.918Z,55.70
2023-01-30T14:30:32.355Z,62.90
2023-01-30T14:35:34.716Z,68.20
2023-01-30T14:40:41.983Z,70.60
2023-01-30T14:45:49.823Z,67.10
2023-01-30T14:51:21.700Z,63.40
2023-01-30T14:56:48.763Z,58.50
2023-01-30T15:01:57.677Z,51.50
2023-01-30T15:07:05.656Z,49.10
2023-01-30T15:12:35.044Z,42.00
2023-01-30T15:18:07.959Z,42.10
2023-01-30T15:23:11.107Z,46.50
2023-01-30T15:28:46.670Z,50.50
2023-01-30T15:33:51.472Z,53.40
2023-01-30T15:39:24.950Z,56.30
2023-01-30T15:45:02.957Z,59.90
2023-01-30T15:50:09.015Z,63.80
2023-01-30T15:55:23.432Z,67.20
2023-01-30T16:00:33.540Z,71.00
2023-01-30T16:05:35.905Z,74.80
2023-01-30T16:10:46.523Z,77.80
2023-01-30T16:15:55.471Z,81.30
2023-01-30T16:21:21.971Z,85.00
2023-01-30T16:26:24.548Z,88.80
2023-01-30T16:31:35.330Z,91.30
2023-01-30T16:36:41.474Z,92.10
2023-01-30T16:41:44.748Z,93.10
2023-01-30T16:46:57.677Z,94.70
2023-01-30T16:52:12.085Z,95.20
2023-01-30T16:57:23.905Z,94.80
2023-01-30T17:02:35.245Z,94.50
2023-01-30T17:07:38.081Z,94.00
2023-01-30T17:12:43.852Z,93.30
2023-01-30T17:17:46.497Z,92.30
2023-01-30T17:22:52.518Z,91.80
2023-01-30T17:27:54.977Z,90.90
2023-01-30T17:32:57.449Z,89.60
2023-01-30T17:38:05.404Z,88.10
2023-01-30T17:43:09.667Z,87.10
2023-01-30T17:48:13.337Z,85.90
2023-01-30T17:53:15.673Z,85.40
2023-01-30T17:58:19.171Z,86.00
2023-01-30T18:03:21.673Z,85.70
2023-01-30T18:08:27.705Z,84.00
2023-01-30T18:13:29.996Z,81.90
2023-01-30T18:18:33.206Z,80.40
2023-01-30T18:23:37.047Z,77.80
2023-01-30T18:28:39.947Z,73.90
2023-01-30T18:33:44.674Z,68.90
2023-01-30T18:38:47.771Z,65.20
2023-01-30T18:43:58.222Z,62.60
2023-01-30T18:49:00.813Z,58.70
2023-01-30T18:54:03.310Z,55.00
2023-01-30T18:59:07.195Z,52.40
2023-01-30T19:04:11.398Z,52.20
2023-01-30T19:09:15.773Z,47.30
2023-01-30T19:14:18.277Z,42.40
2023-01-30T19:19:20.687Z,40.80
2023-01-30T19:24:23.835Z,42.20
2023-01-30T19:29:26.248Z,49.90
2023-01-30T19:34:28.635Z,53.60
2023-01-30T19:39:30.969Z,52.30
2023-01-30T19:44:33.298Z,46.90
2023-01-30T19:49:36.586Z,43.50
2023-01-30T19:54:38.925Z,45.10
2023-01-30T19:59:41.338Z,50.40
2023-01-30T20:04:43.674Z,56.20
2023-01-30T20:09:45.979Z,62.00
2023-01-30T20:14:48.425Z,69.80
2023-01-30T20:19:50.806Z,74.70
2023-01-30T20:24:53.143Z,75.80
2023-01-30T20:29:55.522Z,77.40
2023-01-30T20:34:57.834Z,77.50
2023-01-30T20:40:00.160Z,78.30
2023-01-30T20:45:02.460Z,79.00
2023-01-30T20:50:05.436Z,78.00
2023-01-30T20:55:08.405Z,75.60
2023-01-30T21:00:12.133Z,74.80
2023-01-30T21:05:14.589Z,72.60
2023-01-30T21:10:17.146Z,70.90
2023-01-30T21:15:19.794Z,70.10
2023-01-30T21:20:22.466Z,69.90
2023-01-30T21:25:26.133Z,69.10
2023-01-30T21:30:28.523Z,68.60
2023-01-30T21:35:34.897Z,68.80
2023-01-30T21:40:55.720Z,69.90
2023-01-30T21:45:59.204Z,70.90
2023-01-30T21:51:10.029Z,72.70
2023-01-30T21:56:12.414Z,71.90
2023-01-30T22:01:15.624Z,69.90
2023-01-30T22:06:18.017Z,65.00
2023-01-30T22:11:20.438Z,60.30
2023-01-30T22:16:28.201Z,55.50
2023-01-30T22:21:34.242Z,49.90
2023-01-30T22:26:36.874Z,41.30
2023-01-30T22:31:40.567Z,29.60
2023-01-30T22:36:42.961Z,25.20
2023-01-30T22:41:45.325Z,21.10
2023-01-30T22:46:51.938Z,15.70
2023-01-30T22:51:54.315Z,13.40
2023-01-30T22:56:56.729Z,9.30
2023-01-30T23:01:59.069Z,1.00
2023-01-30T23:07:01.434Z,1.00
2023-01-30T23:12:22.268Z,1.00
2023-01-30T23:17:43.100Z,1.00
2023-01-30T23:22:49.943Z,1.00
2023-01-30T23:27:52.297Z,1.00
2023-01-30T23:32:54.561Z,1.00
2023-01-30T23:38:15.611Z,1.00
2023-01-30T23:43:18.985Z,1.00
2023-01-30T23:48:21.323Z,1.00
2023-01-30T23:53:23.629Z,1.00
2023-01-30T23:58:26.018Z,1.00
